Time;durP1;ratioP1;P1;durP2;ratioP2;P2;SDS_P1;SDS_P2;PMS_P1;PMS_P2;Temp;Humidity;BMP_temperature;BMP_pressure;BME280_temperature;BME280_humidity;BME280_pressure;Samples;Min_cycle;Max_cycle;Signal;HPM_P1;HPM_P2
2024/01/14 00:00:49;;;;;;;31.03;15.27;;;;;;;-3.56;90.67;97498.28;6334431;27;20228;-47
2024/01/14 00:03:54;;;;;;;23.33;13.00;;;;;;;-3.62;91.50;97478.09;6325927;27;20236;-47
2024/01/14 00:06:57;;;;;;;30.10;15.27;;;;;;;-3.62;91.48;97475.50;6343258;27;21522;-46
2024/01/14 00:09:59;;;;;;;27.90;15.83;;;;;;;-3.47;90.01;97465.28;6339014;27;20363;-45
2024/01/14 00:13:01;;;;;;;24.13;12.27;;;;;;;-3.47;89.99;97454.88;6335633;27;20194;-47
2024/01/14 00:16:04;;;;;;;27.93;14.80;;;;;;;-3.60;90.04;97451.91;6334681;27;20276;-49
2024/01/14 00:19:07;;;;;;;27.43;15.00;;;;;;;-3.67;90.43;97449.94;6338330;27;20213;-46
2024/01/14 00:22:09;;;;;;;27.43;14.13;;;;;;;-3.75;90.58;97443.88;6332399;27;20194;-46
2024/01/14 00:25:15;;;;;;;25.60;13.57;;;;;;;-3.85;91.21;97431.00;6326660;27;20192;-45
2024/01/14 00:28:17;;;;;;;28.73;14.87;;;;;;;-3.92;91.54;97441.22;6332711;27;20672;-48
2024/01/14 00:31:19;;;;;;;29.70;15.07;;;;;;;-3.89;91.94;97445.31;6337281;27;20274;-50
2024/01/14 00:34:21;;;;;;;27.97;14.10;;;;;;;-4.07;92.42;97429.78;6331422;27;20197;-47
2024/01/14 00:37:27;;;;;;;24.97;13.47;;;;;;;-4.11;92.46;97407.66;6330901;27;20235;-46
2024/01/14 00:40:32;;;;;;;28.27;14.10;;;;;;;-3.95;92.18;97427.72;6314224;27;20792;-46
2024/01/14 00:43:34;;;;;;;29.33;14.97;;;;;;;-3.77;91.05;97414.59;6333546;27;20181;-47
2024/01/14 00:46:37;;;;;;;28.70;14.10;;;;;;;-3.87;91.10;97421.72;6331811;27;20193;-46
2024/01/14 00:49:40;;;;;;;27.73;14.40;;;;;;;-3.93;90.88;97425.78;6336445;27;20196;-45
2024/01/14 00:52:42;;;;;;;27.10;15.07;;;;;;;-3.76;90.10;97437.88;6327810;28;20200;-47
2024/01/14 00:55:44;;;;;;;27.47;14.47;;;;;;;-3.91;90.02;97398.63;6333824;27;20181;-46
2024/01/14 00:58:47;;;;;;;22.70;12.33;;;;;;;-3.81;89.19;97413.28;6330062;28;20266;-46
2024/01/14 01:01:49;;;;;;;28.67;14.93;;;;;;;-3.89;89.14;97403.69;6331186;28;20206;-46
2024/01/14 01:04:51;;;;;;;28.00;14.27;;;;;;;-3.94;90.26;97406.75;6326097;28;20183;-49
2024/01/14 01:07:53;;;;;;;29.13;15.47;;;;;;;-3.83;89.74;97420.44;6321657;27;20197;-46
2024/01/14 01:10:55;;;;;;;30.53;15.37;;;;;;;-3.89;90.46;97414.09;6328618;27;20653;-46
2024/01/14 01:13:58;;;;;;;27.17;14.47;;;;;;;-3.86;89.92;97413.75;6331766;27;20189;-46
2024/01/14 01:17:00;;;;;;;30.47;15.53;;;;;;;-3.82;89.85;97412.47;6336913;27;20800;-48
2024/01/14 01:20:03;;;;;;;29.60;15.63;;;;;;;-3.83;90.42;97407.44;6316282;28;20243;-47
2024/01/14 01:23:05;;;;;;;25.73;13.90;;;;;;;-3.81;89.74;97408.09;6340495;27;20190;-46
2024/01/14 01:26:07;;;;;;;32.57;15.27;;;;;;;-3.81;89.95;97401.09;6338317;28;20197;-46
2024/01/14 01:29:09;;;;;;;28.40;14.00;;;;;;;-3.71;89.49;97393.97;6321548;28;20210;-48
2024/01/14 01:32:12;;;;;;;31.13;15.67;;;;;;;-4.06;90.86;97391.56;6336718;28;20658;-46
2024/01/14 01:35:15;;;;;;;30.47;15.53;;;;;;;-3.93;90.65;97399.75;6337594;28;20185;-46
2024/01/14 01:38:17;;;;;;;25.00;13.83;;;;;;;-3.77;90.06;97386.78;6319480;27;20217;-47
2024/01/14 01:41:21;;;;;;;25.00;14.10;;;;;;;-3.86;90.58;97366.94;6335359;27;20204;-47
2024/01/14 01:44:25;;;;;;;32.57;15.57;;;;;;;-3.84;90.06;97383.22;6327821;28;20193;-48
2024/01/14 01:47:27;;;;;;;25.53;12.90;;;;;;;-3.87;89.65;97354.09;6339246;27;20864;-46
2024/01/14 01:50:31;;;;;;;30.07;14.90;;;;;;;-3.81;89.88;97359.44;6341202;27;20189;-45
2024/01/14 01:53:33;;;;;;;30.07;15.17;;;;;;;-3.91;90.23;97338.78;6339610;27;20197;-45
2024/01/14 01:56:37;;;;;;;27.37;14.17;;;;;;;-4.00;90.36;97302.50;6341054;27;20209;-47
2024/01/14 01:59:43;;;;;;;31.80;15.57;;;;;;;-4.11;91.09;97313.19;6337047;27;20213;-45
2024/01/14 02:02:46;;;;;;;25.80;15.07;;;;;;;-3.93;90.06;97306.09;6323811;27;20641;-47
2024/01/14 02:05:52;;;;;;;24.80;12.50;;;;;;;-3.58;88.84;97343.25;6345792;27;20188;-45
2024/01/14 02:08:54;;;;;;;28.00;14.90;;;;;;;-3.62;88.86;97340.13;6335445;27;20226;-45
2024/01/14 02:11:58;;;;;;;24.13;13.70;;;;;;;-3.64;89.49;97337.69;6340024;27;20200;-44
2024/01/14 02:15:01;;;;;;;28.60;15.40;;;;;;;-3.60;89.02;97337.38;6340243;27;20193;-47
2024/01/14 02:18:03;;;;;;;28.60;14.87;;;;;;;-3.60;89.40;97329.56;6339754;27;20190;-46
2024/01/14 02:21:07;;;;;;;26.03;15.30;;;;;;;-3.61;89.48;97333.94;6316329;27;20197;-46
2024/01/14 02:24:30;;;;;;;29.93;15.60;;;;;;;-3.83;90.87;97324.16;6337230;27;20198;-49
2024/01/14 02:27:33;;;;;;;28.27;14.33;;;;;;;-3.86;91.11;97327.91;6334983;27;20269;-45
2024/01/14 02:30:39;;;;;;;29.80;14.97;;;;;;;-3.84;91.46;97336.38;6342447;27;20234;-46
2024/01/14 02:33:42;;;;;;;24.83;13.67;;;;;;;-3.70;90.55;97298.47;6337358;27;20189;-48
2024/01/14 02:36:44;;;;;;;28.07;14.37;;;;;;;-3.60;90.31;97306.94;6341752;27;20240;-46
2024/01/14 02:39:47;;;;;;;29.87;15.03;;;;;;;-3.75;90.83;97317.16;6339837;27;20200;-46
2024/01/14 02:42:49;;;;;;;27.40;14.17;;;;;;;-3.70;91.07;97314.91;6332825;27;20716;-46
2024/01/14 02:45:52;;;;;;;27.87;14.83;;;;;;;-3.78;91.66;97309.69;6340398;27;20204;-47
2024/01/14 02:48:54;;;;;;;25.13;14.13;;;;;;;-3.84;92.10;97289.53;6328406;27;20220;-47
2024/01/14 02:51:57;;;;;;;27.87;14.03;;;;;;;-3.83;92.60;97291.16;6336314;27;20185;-48
2024/01/14 02:54:59;;;;;;;24.07;13.80;;;;;;;-3.93;92.65;97278.28;6337505;27;20282;-46
2024/01/14 02:58:01;;;;;;;31.27;15.70;;;;;;;-3.86;93.08;97282.84;6340852;27;20688;-48
2024/01/14 03:01:04;;;;;;;26.93;13.77;;;;;;;-4.01;93.25;97241.03;6329462;27;20288;-47
2024/01/14 03:04:06;;;;;;;27.77;14.50;;;;;;;-3.68;91.73;97247.09;6337571;27;20193;-46
2024/01/14 03:07:08;;;;;;;25.00;13.03;;;;;;;-3.76;92.54;97262.69;6337273;27;20221;-47
2024/01/14 03:10:11;;;;;;;28.53;13.87;;;;;;;-3.75;92.35;97264.31;6338536;27;20198;-46
2024/01/14 03:13:15;;;;;;;26.77;13.10;;;;;;;-3.71;91.83;97227.38;6317807;27;20189;-45
2024/01/14 03:16:18;;;;;;;23.10;12.00;;;;;;;-3.64;90.98;97235.38;6321160;27;20299;-47
2024/01/14 03:19:20;;;;;;;23.93;11.93;;;;;;;-3.91;91.72;97226.09;6338821;27;20186;-45
2024/01/14 03:22:23;;;;;;;20.63;10.37;;;;;;;-3.54;89.98;97250.81;6342166;27;20194;-47
2024/01/14 03:25:25;;;;;;;17.43;10.30;;;;;;;-3.60;90.75;97246.25;6342980;27;20186;-44
2024/01/14 03:28:27;;;;;;;18.30;9.27;;;;;;;-3.37;88.96;97245.44;6342190;27;20531;-46
2024/01/14 03:31:32;;;;;;;16.07;9.33;;;;;;;-3.43;89.00;97251.28;6346517;27;20182;-47
2024/01/14 03:34:34;;;;;;;14.10;8.37;;;;;;;-3.51;90.35;97250.47;6335717;27;20201;-47
2024/01/14 03:37:36;;;;;;;14.30;8.00;;;;;;;-3.54;90.20;97238.63;6346421;27;20224;-46
2024/01/14 03:40:38;;;;;;;17.07;8.70;;;;;;;-3.63;90.07;97221.38;6337258;27;20225;-47
2024/01/14 03:43:40;;;;;;;15.23;8.40;;;;;;;-3.57;90.22;97249.34;6333202;27;21807;-48
2024/01/14 03:46:44;;;;;;;13.10;7.40;;;;;;;-3.52;89.24;97220.22;6342838;27;20609;-46
2024/01/14 03:49:46;;;;;;;14.50;7.40;;;;;;;-3.55;89.82;97223.94;6334109;27;20181;-46
2024/01/14 03:52:49;;;;;;;15.17;7.80;;;;;;;-3.30;89.32;97249.97;6334943;27;20292;-45
2024/01/14 03:55:51;;;;;;;14.43;7.60;;;;;;;-3.20;87.61;97243.63;6333494;27;20243;-46
2024/01/14 03:58:53;;;;;;;10.43;6.47;;;;;;;-3.40;89.39;97248.38;6339140;27;20254;-46
2024/01/14 04:01:56;;;;;;;13.60;6.23;;;;;;;-3.53;90.16;97237.63;6339398;27;20213;-46
2024/01/14 04:04:58;;;;;;;11.63;6.40;;;;;;;-3.72;90.85;97246.59;6337377;27;20181;-47
2024/01/14 04:08:00;;;;;;;13.17;6.87;;;;;;;-3.76;91.87;97245.28;6342558;27;20222;-47
2024/01/14 04:11:02;;;;;;;15.07;6.30;;;;;;;-3.81;92.10;97252.75;6319004;27;20592;-46
2024/01/14 04:14:04;;;;;;;13.73;6.47;;;;;;;-3.94;92.90;97250.66;6339918;27;20193;-46
2024/01/14 04:17:06;;;;;;;10.67;6.07;;;;;;;-4.00;94.02;97250.47;6337304;27;20849;-48
2024/01/14 04:20:09;;;;;;;12.30;6.27;;;;;;;-3.91;93.74;97241.69;6341166;27;20839;-47
2024/01/14 04:23:11;;;;;;;10.60;5.70;;;;;;;-3.74;92.85;97232.13;6335225;27;20190;-46
2024/01/14 04:26:14;;;;;;;11.93;6.37;;;;;;;-3.50;91.41;97239.91;6336235;27;20201;-48
2024/01/14 04:29:16;;;;;;;11.50;5.90;;;;;;;-3.57;92.24;97232.91;6335395;27;20327;-48
2024/01/14 04:32:18;;;;;;;10.33;5.60;;;;;;;-3.53;91.50;97229.81;6332522;27;20291;-45
2024/01/14 04:35:20;;;;;;;9.93;5.40;;;;;;;-3.57;91.83;97236.34;6338120;27;20201;-48
2024/01/14 04:38:23;;;;;;;8.53;4.67;;;;;;;-3.35;91.31;97231.41;6339535;27;20840;-46
2024/01/14 04:41:25;;;;;;;8.13;4.80;;;;;;;-3.48;91.94;97224.94;6316127;27;20193;-48
2024/01/14 04:44:27;;;;;;;10.43;5.23;;;;;;;-3.40;91.40;97222.34;6337226;27;20193;-49
2024/01/14 04:47:29;;;;;;;8.47;5.40;;;;;;;-3.15;89.96;97209.25;6327871;27;20201;-46
2024/01/14 04:50:31;;;;;;;7.23;4.60;;;;;;;-3.06;88.51;97215.25;6330792;27;20328;-48
2024/01/14 04:53:34;;;;;;;7.63;4.13;;;;;;;-2.94;88.10;97214.72;6340722;27;20212;-46
2024/01/14 04:56:37;;;;;;;7.17;4.20;;;;;;;-2.84;86.21;97195.47;6332164;27;20190;-46
2024/01/14 04:59:39;;;;;;;5.60;3.93;;;;;;;-2.65;86.00;97210.72;6334425;27;20196;-46
2024/01/14 05:02:41;;;;;;;8.00;4.20;;;;;;;-2.65;86.25;97213.31;6331677;27;20206;-47
2024/01/14 05:05:43;;;;;;;8.20;4.00;;;;;;;-2.78;86.70;97194.78;6334374;27;20189;-47
2024/01/14 05:08:45;;;;;;;6.27;3.73;;;;;;;-2.67;85.41;97160.53;6336271;27;20272;-48
2024/01/14 05:11:48;;;;;;;5.57;3.20;;;;;;;-2.98;85.28;97135.25;6337313;27;20182;-46
2024/01/14 05:14:50;;;;;;;7.37;4.40;;;;;;;-2.66;86.72;97207.28;6322952;28;20256;-50
2024/01/14 05:17:52;;;;;;;7.10;3.93;;;;;;;-2.35;85.43;97207.28;6332677;27;20185;-47
2024/01/14 05:20:54;;;;;;;9.33;3.60;;;;;;;-2.51;86.32;97203.94;6330256;27;20209;-48
2024/01/14 05:23:57;;;;;;;6.20;3.53;;;;;;;-2.38;85.41;97210.22;6330301;28;20193;-48
2024/01/14 05:26:59;;;;;;;7.00;3.87;;;;;;;-2.33;85.62;97197.47;6344322;27;20815;-45
2024/01/14 05:30:03;;;;;;;5.77;3.10;;;;;;;-2.41;85.60;97202.78;6340316;28;20775;-48
2024/01/14 05:33:05;;;;;;;6.33;3.30;;;;;;;-2.40;85.59;97190.53;6336313;28;20190;-48
2024/01/14 05:36:08;;;;;;;6.50;3.70;;;;;;;-2.25;84.04;97195.81;6334077;28;20761;-52
2024/01/14 05:39:10;;;;;;;5.50;3.00;;;;;;;-2.31;85.71;97191.31;6342950;28;20569;-47
2024/01/14 05:42:12;;;;;;;6.33;3.43;;;;;;;-2.29;84.78;97174.47;6338671;28;20829;-49
2024/01/14 05:45:14;;;;;;;5.33;2.90;;;;;;;-2.13;84.21;97169.13;6342719;28;20193;-45
2024/01/14 05:48:18;;;;;;;4.10;2.87;;;;;;;-2.29;84.68;97168.44;6333605;28;20322;-49
2024/01/14 05:51:25;;;;;;;6.03;3.30;;;;;;;-2.28;83.47;97146.59;6342529;28;20185;-47
2024/01/14 05:54:27;;;;;;;4.80;2.90;;;;;;;-2.28;85.01;97170.06;6335597;28;20598;-47
2024/01/14 05:57:30;;;;;;;5.87;2.93;;;;;;;-2.44;85.38;97173.59;6341412;28;20691;-47
2024/01/14 06:00:32;;;;;;;6.00;2.60;;;;;;;-2.17;83.92;97162.66;6340007;28;20210;-46
2024/01/14 06:03:35;;;;;;;5.23;3.07;;;;;;;-2.25;83.52;97161.91;6337757;28;20209;-46
2024/01/14 06:06:37;;;;;;;6.87;3.20;;;;;;;-2.41;84.88;97165.44;6339370;28;20188;-47
2024/01/14 06:09:40;;;;;;;5.80;2.87;;;;;;;-2.50;86.40;97164.66;6336109;28;20190;-45
2024/01/14 06:12:42;;;;;;;6.30;3.40;;;;;;;-2.35;85.59;97173.38;6335962;28;20182;-46
2024/01/14 06:15:44;;;;;;;4.53;3.07;;;;;;;-2.41;85.98;97181.91;6340631;28;20933;-46
2024/01/14 06:18:46;;;;;;;3.80;2.87;;;;;;;-2.46;87.23;97196.44;6336714;28;20194;-46
2024/01/14 06:21:49;;;;;;;5.53;3.80;;;;;;;-2.41;86.56;97189.72;6331746;28;20324;-47
2024/01/14 06:24:51;;;;;;;6.53;3.30;;;;;;;-2.38;86.07;97178.13;6337313;27;20284;-45
2024/01/14 06:27:53;;;;;;;5.80;3.63;;;;;;;-2.43;86.98;97177.81;6342262;27;20539;-47
2024/01/14 06:30:56;;;;;;;5.87;3.63;;;;;;;-2.22;84.41;97164.97;6334012;27;20193;-45
2024/01/14 06:33:59;;;;;;;5.97;3.20;;;;;;;-2.22;83.75;97145.88;6337940;27;20269;-46
2024/01/14 06:37:02;;;;;;;5.60;3.00;;;;;;;-1.88;82.92;97171.56;6344519;27;20244;-46
2024/01/14 06:40:05;;;;;;;5.63;2.80;;;;;;;-1.93;83.66;97174.69;6339153;27;20198;-47
2024/01/14 06:43:08;;;;;;;5.70;3.50;;;;;;;-1.98;83.20;97171.81;6335644;27;20622;-46
2024/01/14 06:46:10;;;;;;;5.23;3.23;;;;;;;-2.10;84.15;97170.59;6336074;27;20197;-47
2024/01/14 06:49:12;;;;;;;5.73;3.23;;;;;;;-2.01;83.88;97161.72;6342651;27;20282;-45
2024/01/14 06:52:15;;;;;;;5.37;2.97;;;;;;;-2.03;83.64;97157.66;6340228;27;20193;-47
2024/01/14 06:55:17;;;;;;;6.50;3.53;;;;;;;-2.05;84.54;97150.00;6338393;27;20269;-49
2024/01/14 06:58:19;;;;;;;4.57;3.10;;;;;;;-2.21;84.19;97126.66;6329940;27;20197;-46
2024/01/14 07:01:21;;;;;;;6.03;3.33;;;;;;;-2.27;84.73;97143.81;6318754;27;20220;-47
2024/01/14 07:04:23;;;;;;;5.40;2.83;;;;;;;-2.08;83.86;97129.47;6335982;27;20200;-47
2024/01/14 07:07:27;;;;;;;5.40;3.20;;;;;;;-2.02;83.18;97146.22;6332864;27;20200;-46
2024/01/14 07:10:29;;;;;;;4.30;3.27;;;;;;;-2.14;83.86;97141.44;6332083;27;20197;-46
2024/01/14 07:13:31;;;;;;;4.77;2.67;;;;;;;-1.99;83.09;97154.53;6335200;27;20198;-46
2024/01/14 07:16:35;;;;;;;5.77;3.23;;;;;;;-1.96;82.58;97154.19;6331169;27;20275;-46
2024/01/14 07:19:38;;;;;;;5.27;3.30;;;;;;;-1.99;83.05;97133.66;6319692;27;20190;-47
2024/01/14 07:22:40;;;;;;;4.37;2.77;;;;;;;-2.03;83.56;97142.81;6284495;27;20827;-47
2024/01/14 07:25:42;;;;;;;4.93;2.97;;;;;;;-1.93;82.57;97148.59;6290456;28;20203;-47
2024/01/14 07:28:45;;;;;;;4.57;3.10;;;;;;;-1.95;82.55;97129.69;6287801;28;20842;-46
2024/01/14 07:31:47;;;;;;;4.20;2.83;;;;;;;-1.99;81.90;97130.22;6289435;28;20197;-47
2024/01/14 07:34:49;;;;;;;4.20;2.67;;;;;;;-2.16;83.82;97134.78;6293484;28;20224;-47
2024/01/14 07:37:52;;;;;;;5.10;3.20;;;;;;;-2.10;83.41;97142.72;6273724;28;20237;-49
2024/01/14 07:40:55;;;;;;;4.33;2.83;;;;;;;-2.37;85.32;97128.38;6290492;28;20205;-46
2024/01/14 07:43:57;;;;;;;3.77;2.60;;;;;;;-2.29;84.97;97143.19;6287107;28;20723;-47
2024/01/14 07:46:59;;;;;;;3.30;2.47;;;;;;;-2.30;85.16;97143.38;6275586;28;20234;-48
2024/01/14 07:50:02;;;;;;;3.70;2.47;;;;;;;-2.31;85.29;97146.97;6280818;28;20311;-46
2024/01/14 07:53:04;;;;;;;6.07;3.30;;;;;;;-2.19;84.36;97151.59;6281595;28;20229;-47
2024/01/14 07:56:07;;;;;;;3.43;2.57;;;;;;;-2.24;84.16;97146.06;6288951;28;20199;-46
2024/01/14 07:59:10;;;;;;;4.17;2.50;;;;;;;-2.27;84.99;97129.94;6270194;28;20560;-46
2024/01/14 08:02:14;;;;;;;4.23;2.93;;;;;;;-2.28;85.22;97134.34;6288043;28;20203;-46
2024/01/14 08:05:16;;;;;;;4.80;2.90;;;;;;;-2.21;84.99;97135.31;6283689;28;20766;-47
2024/01/14 08:08:18;;;;;;;5.37;3.40;;;;;;;-1.94;83.56;97139.16;6272048;28;20194;-47
2024/01/14 08:11:20;;;;;;;3.57;2.30;;;;;;;-1.98;83.66;97135.25;6286814;28;20190;-46
2024/01/14 08:14:23;;;;;;;4.03;2.57;;;;;;;-2.02;84.61;97136.63;6288500;28;20564;-46
2024/01/14 08:17:26;;;;;;;4.90;2.87;;;;;;;-1.89;82.78;97136.00;6287203;28;20595;-46
2024/01/14 08:20:29;;;;;;;4.53;3.03;;;;;;;-1.95;82.51;97124.47;6271503;28;20214;-46
2024/01/14 08:23:34;;;;;;;4.50;2.90;;;;;;;-1.94;83.81;97141.75;6294709;28;20224;-48
2024/01/14 08:26:46;;;;;;;5.57;2.67;;;;;;;-1.93;84.21;97127.72;6282391;28;20666;-47
2024/01/14 08:29:48;;;;;;;5.50;2.53;;;;;;;-1.72;82.31;97132.28;6293240;28;20607;-46
2024/01/14 08:32:51;;;;;;;4.10;2.27;;;;;;;-1.67;82.71;97123.91;6284951;28;20266;-47
2024/01/14 08:35:54;;;;;;;5.57;3.27;;;;;;;-1.48;81.10;97130.41;6284596;28;20196;-46
2024/01/14 08:38:57;;;;;;;3.90;2.93;;;;;;;-1.31;79.61;97129.25;6289978;28;20548;-46
2024/01/14 08:41:59;;;;;;;4.37;2.57;;;;;;;-1.22;78.76;97125.56;6287233;28;20203;-46
2024/01/14 08:45:02;;;;;;;4.17;2.80;;;;;;;-1.18;78.53;97126.81;6291591;28;20609;-46
2024/01/14 08:48:06;;;;;;;3.70;2.63;;;;;;;-0.91;77.42;97127.94;6291396;28;20201;-46
2024/01/14 08:51:13;;;;;;;3.67;2.47;;;;;;;-1.03;77.92;97124.19;6287292;28;20653;-46
2024/01/14 08:54:15;;;;;;;4.40;2.60;;;;;;;-1.00;77.81;97129.03;6288266;28;20194;-46
2024/01/14 08:57:17;;;;;;;4.07;2.40;;;;;;;-0.94;78.11;97130.09;6295901;28;20191;-47
2024/01/14 09:00:20;;;;;;;4.37;2.50;;;;;;;-0.74;74.46;97105.00;6279827;28;20198;-47
2024/01/14 09:03:22;;;;;;;3.60;2.60;;;;;;;-0.45;74.96;97130.25;6288376;28;20241;-47
2024/01/14 09:06:24;;;;;;;4.50;2.63;;;;;;;-0.40;73.75;97127.91;6286248;28;20575;-47
2024/01/14 09:09:27;;;;;;;3.30;2.40;;;;;;;0.02;71.43;97128.09;6285743;28;20541;-47
2024/01/14 09:12:29;;;;;;;3.77;1.83;;;;;;;-0.14;70.47;97082.06;6283394;28;20194;-46
2024/01/14 09:15:32;;;;;;;3.47;2.13;;;;;;;0.18;70.64;97118.16;6291659;28;20201;-49
2024/01/14 09:18:34;;;;;;;2.77;1.77;;;;;;;0.30;70.42;97134.19;6286185;28;20183;-49
2024/01/14 09:21:37;;;;;;;3.00;1.70;;;;;;;0.23;69.51;97107.09;6287154;28;20281;-47
2024/01/14 09:24:48;;;;;;;3.67;1.93;;;;;;;0.54;68.59;97132.09;6279936;28;20194;-47
2024/01/14 09:27:50;;;;;;;3.67;2.03;;;;;;;0.58;68.16;97136.78;6278724;28;20622;-48
2024/01/14 09:30:53;;;;;;;2.53;1.63;;;;;;;0.76;67.32;97131.84;6290398;28;20187;-49
2024/01/14 09:33:55;;;;;;;3.17;2.30;;;;;;;0.56;68.26;97109.16;6286143;28;20770;-47
2024/01/14 09:36:58;;;;;;;2.83;1.80;;;;;;;0.70;69.30;97158.03;6268941;28;20249;-49
2024/01/14 09:40:00;;;;;;;2.10;1.40;;;;;;;0.75;69.31;97143.34;6286131;28;20205;-48
2024/01/14 09:43:06;;;;;;;2.70;1.70;;;;;;;0.64;69.50;97143.91;6284695;28;20210;-47
2024/01/14 09:46:09;;;;;;;2.50;1.50;;;;;;;0.85;69.08;97144.81;6285598;28;20226;-48
2024/01/14 09:49:12;;;;;;;2.67;1.33;;;;;;;1.10;66.80;97143.31;6285168;28;20309;-47
2024/01/14 09:52:21;;;;;;;1.77;1.60;;;;;;;1.02;67.26;97130.38;6288123;28;20201;-56
2024/01/14 09:55:27;;;;;;;2.73;1.70;;;;;;;1.05;66.89;97114.25;6275704;28;20202;-57
2024/01/14 09:58:32;;;;;;;2.33;1.63;;;;;;;1.19;66.60;97142.16;6286948;28;20190;-54
2024/01/14 10:01:35;;;;;;;2.47;1.98;;;;;;;1.29;66.74;97129.47;6291317;28;21093;-52
2024/01/14 10:04:41;;;;;;;1.93;1.27;;;;;;;1.27;66.27;97096.56;6281332;28;20191;-54
2024/01/14 10:07:45;;;;;;;2.27;1.60;;;;;;;1.42;65.37;97135.78;6292303;28;20671;-57
2024/01/14 10:10:52;;;;;;;1.70;1.10;;;;;;;1.35;65.87;97122.63;6294304;28;20210;-51
2024/01/14 10:13:59;;;;;;;2.77;1.37;;;;;;;1.39;65.32;97125.69;6291375;28;20249;-53
2024/01/14 10:17:01;;;;;;;3.20;1.30;;;;;;;1.44;65.69;97121.47;6287016;28;20249;-56
2024/01/14 10:20:06;;;;;;;2.00;1.30;;;;;;;1.31;65.92;97118.78;6294279;28;20201;-56
2024/01/14 10:23:08;;;;;;;1.73;1.40;;;;;;;1.50;65.06;97106.72;6289550;28;20361;-56
2024/01/14 10:26:10;;;;;;;3.23;1.73;;;;;;;1.41;65.34;97113.16;6293983;28;20234;-56
2024/01/14 10:29:14;;;;;;;2.70;1.60;;;;;;;1.34;66.66;97107.91;6295099;28;20198;-58
2024/01/14 10:32:18;;;;;;;2.07;1.47;;;;;;;1.47;65.08;97102.69;6296327;28;20184;-54
2024/01/14 10:35:20;;;;;;;2.40;1.70;;;;;;;1.43;65.31;97095.41;6291682;28;20195;-56
2024/01/14 10:38:23;;;;;;;4.03;1.87;;;;;;;1.67;65.01;97083.53;6284378;28;20235;-51
2024/01/14 10:41:26;;;;;;;2.90;1.70;;;;;;;1.63;64.33;97096.28;6287206;28;20568;-57
2024/01/14 10:44:28;;;;;;;3.20;1.50;;;;;;;1.81;63.35;97095.66;6293767;28;20218;-58
2024/01/14 10:47:36;;;;;;;2.83;1.70;;;;;;;1.64;63.70;97070.81;6287048;28;20190;-57
2024/01/14 10:50:40;;;;;;;3.37;1.83;;;;;;;1.80;62.81;97086.19;6294083;28;20674;-58
2024/01/14 10:54:10;;;;;;;2.27;1.57;;;;;;;1.81;66.24;97082.53;6290429;28;21069;-58
2024/01/14 10:57:36;;;;;;;2.57;1.90;;;;;;;1.96;64.48;97069.22;6291037;28;20264;-57
2024/01/14 11:00:40;;;;;;;2.37;1.63;;;;;;;1.72;63.11;97031.22;6287840;28;20206;-58
2024/01/14 11:03:43;;;;;;;3.13;1.80;;;;;;;2.17;62.74;97062.94;6281485;28;20351;-55
2024/01/14 11:06:55;;;;;;;2.77;1.80;;;;;;;2.16;64.66;97049.00;6287496;28;20206;-58
2024/01/14 11:09:58;;;;;;;2.70;1.73;;;;;;;2.23;61.59;97054.25;6292488;28;20199;-54
2024/01/14 11:13:27;;;;;;;3.10;1.83;;;;;;;2.29;60.87;97048.19;6270866;28;20274;-51
2024/01/14 11:16:38;;;;;;;3.37;2.10;;;;;;;2.35;60.12;97041.28;6284239;28;20190;-59
2024/01/14 11:19:42;;;;;;;2.90;1.70;;;;;;;2.25;63.72;97031.19;6292445;28;20207;-55
2024/01/14 11:22:44;;;;;;;3.13;1.83;;;;;;;2.33;60.64;97034.44;6277809;28;20292;-58
2024/01/14 11:25:56;;;;;;;2.50;1.73;;;;;;;2.45;60.42;97018.03;6287629;28;20195;-55
2024/01/14 11:29:00;;;;;;;2.80;1.97;;;;;;;2.19;61.54;97019.69;6276820;28;20191;-58
2024/01/14 11:32:02;;;;;;;3.53;2.33;;;;;;;2.38;60.73;97019.88;6290117;28;20652;-57
2024/01/14 11:35:06;;;;;;;2.33;1.57;;;;;;;2.28;60.85;97004.53;6287536;28;20191;-56
2024/01/14 11:38:33;;;;;;;2.97;2.07;;;;;;;2.35;61.45;97001.88;6287561;28;20712;-57
2024/01/14 11:41:35;;;;;;;2.07;1.50;;;;;;;2.31;63.49;96999.63;6268717;28;20196;-56
2024/01/14 11:44:37;;;;;;;3.43;1.93;;;;;;;2.27;63.14;97008.97;6288166;28;20718;-58
2024/01/14 11:47:45;;;;;;;2.87;2.00;;;;;;;2.27;61.37;97003.72;6287436;28;20188;-56
2024/01/14 11:50:51;;;;;;;3.40;2.07;;;;;;;2.38;64.03;96991.75;6290204;28;20691;-58
2024/01/14 11:53:55;;;;;;;2.63;1.80;;;;;;;2.32;62.05;96995.22;6268054;28;20204;-57
2024/01/14 11:56:58;;;;;;;3.27;2.17;;;;;;;2.67;60.07;96987.81;6287028;28;20199;-57
2024/01/14 12:00:01;;;;;;;2.80;1.87;;;;;;;2.49;60.30;96980.59;6289715;28;20215;-58
2024/01/14 12:03:12;;;;;;;3.67;2.10;;;;;;;2.41;61.83;96978.19;6291025;28;20220;-57
2024/01/14 12:06:14;;;;;;;2.47;1.63;;;;;;;2.54;60.88;96987.88;6292685;28;20934;-58
2024/01/14 12:09:17;;;;;;;4.03;1.97;;;;;;;2.67;61.42;96966.78;6296559;28;20654;-54
2024/01/14 12:12:21;;;;;;;2.53;1.80;;;;;;;2.58;60.36;96989.06;6293711;28;20212;-57
2024/01/14 12:15:23;;;;;;;3.00;1.90;;;;;;;2.61;60.03;96972.88;6285403;28;20800;-56
2024/01/14 12:18:25;;;;;;;2.60;1.80;;;;;;;2.55;59.42;96963.19;6291700;28;20244;-56
2024/01/14 12:21:28;;;;;;;2.43;1.60;;;;;;;2.56;59.50;96967.41;6285862;28;20197;-57
2024/01/14 12:24:35;;;;;;;1.80;1.23;;;;;;;2.49;61.15;96964.03;6284656;28;20201;-57
2024/01/14 12:27:37;;;;;;;2.70;1.70;;;;;;;2.66;59.74;96959.09;6277602;28;20492;-56
2024/01/14 12:30:39;;;;;;;1.33;1.23;;;;;;;2.59;60.80;96962.56;6284373;28;20607;-57
2024/01/14 12:33:46;;;;;;;4.30;1.83;;;;;;;2.61;60.95;96953.66;6264039;28;20243;-55
2024/01/14 12:36:49;;;;;;;2.93;1.67;;;;;;;2.54;60.89;96945.81;6290201;28;20955;-56
2024/01/14 12:39:55;;;;;;;2.70;1.80;;;;;;;2.47;62.72;96950.28;6291198;28;20197;-55
2024/01/14 12:42:59;;;;;;;2.77;1.87;;;;;;;2.67;60.17;96943.13;6273748;28;20812;-53
2024/01/14 12:46:04;;;;;;;1.97;1.70;;;;;;;2.55;60.12;96948.22;6290356;28;20194;-56
2024/01/14 12:49:09;;;;;;;3.13;2.13;;;;;;;2.45;58.63;96939.16;6285279;28;20219;-56
2024/01/14 12:52:16;;;;;;;3.27;1.90;;;;;;;2.31;62.69;96946.28;6288519;28;20187;-55
2024/01/14 12:55:22;;;;;;;3.10;2.03;;;;;;;2.03;62.38;96905.34;6267997;28;20197;-56
2024/01/14 12:58:24;;;;;;;4.47;2.53;;;;;;;2.40;59.91;96938.97;6287383;28;20212;-59
2024/01/14 13:01:27;;;;;;;3.97;2.50;;;;;;;2.30;60.29;96936.78;6285176;28;20199;-56
2024/01/14 13:04:29;;;;;;;3.40;2.33;;;;;;;2.08;63.45;96940.72;6285329;28;20198;-58
2024/01/14 13:07:32;;;;;;;3.83;2.27;;;;;;;2.13;63.19;96930.38;6284661;28;20211;-59
2024/01/14 13:10:34;;;;;;;3.87;2.63;;;;;;;2.16;62.17;96933.38;6282380;28;20187;-55
2024/01/14 13:13:37;;;;;;;3.80;2.23;;;;;;;2.06;62.38;96912.00;6277440;28;20269;-56
2024/01/14 13:16:39;;;;;;;4.67;2.63;;;;;;;1.93;65.36;96927.81;6265216;28;20193;-59
2024/01/14 13:19:54;;;;;;;2.77;1.80;;;;;;;1.66;66.33;96930.47;6281307;28;20192;-58
2024/01/14 13:22:56;;;;;;;5.27;3.10;;;;;;;1.86;62.75;96903.38;6283321;28;20671;-55
2024/01/14 13:25:58;;;;;;;4.10;2.43;;;;;;;1.65;65.16;96926.22;6262618;28;20195;-58
2024/01/14 13:29:01;;;;;;;3.97;2.43;;;;;;;1.83;63.89;96930.06;6143060;28;20733;-56
2024/01/14 13:32:03;;;;;;;4.73;3.10;;;;;;;1.63;65.58;96925.63;6192705;28;20549;-58
2024/01/14 13:35:07;;;;;;;5.33;3.17;;;;;;;1.41;65.14;96911.91;6191112;28;20568;-58
2024/01/14 13:38:10;;;;;;;4.57;2.57;;;;;;;1.31;65.62;96902.81;6193864;28;20318;-57
2024/01/14 13:41:12;;;;;;;4.30;2.37;;;;;;;1.27;68.32;96920.78;6189429;28;20204;-56
2024/01/14 13:44:14;;;;;;;5.67;3.10;;;;;;;1.54;64.51;96921.59;6193101;28;21909;-54
2024/01/14 13:47:19;;;;;;;4.80;3.10;;;;;;;1.30;65.78;96920.38;6190061;28;20560;-53
2024/01/14 13:50:21;;;;;;;6.40;3.90;;;;;;;1.18;65.90;96922.81;6192594;28;20278;-52
2024/01/14 13:53:23;;;;;;;6.60;3.40;;;;;;;0.96;65.91;96882.84;6188735;28;20665;-52
2024/01/14 13:56:25;;;;;;;4.77;2.90;;;;;;;1.08;67.30;96925.00;6200513;28;20602;-52
2024/01/14 13:59:29;;;;;;;5.30;3.37;;;;;;;1.39;64.96;96915.75;6186456;28;20217;-52
2024/01/14 14:02:30;;;;;;;6.67;4.30;;;;;;;1.23;65.43;96922.19;6190649;28;20576;-54
2024/01/14 14:05:33;;;;;;;6.83;4.03;;;;;;;0.96;68.89;96916.94;6195709;28;20254;-56
2024/01/14 14:08:35;;;;;;;7.67;3.53;;;;;;;1.34;66.44;96913.72;6189659;28;20501;-54
2024/01/14 14:11:38;;;;;;;5.83;4.13;;;;;;;1.18;66.42;96924.59;6187872;28;20284;-55
2024/01/14 14:14:40;;;;;;;5.87;3.37;;;;;;;0.92;69.07;96917.53;6182746;28;20306;-55
2024/01/14 14:17:42;;;;;;;5.87;3.13;;;;;;;0.70;69.97;96912.44;6190664;28;20193;-56
2024/01/14 14:20:49;;;;;;;7.40;3.87;;;;;;;0.64;70.22;96901.94;6149654;28;20240;-55